sensor_id;sensor_type;location;lat;lon;timestamp;temperature;humidity
51725;DHT22;37801;53.224;6.552;2022-09-25T00:01:24;9.40;99.90
51725;DHT22;37801;53.224;6.552;2022-09-25T00:03:49;9.40;99.90
51725;DHT22;37801;53.224;6.552;2022-09-25T00:06:18;9.30;99.90
51725;DHT22;37801;53.224;6.552;2022-09-25T00:08:44;9.30;99.90
51725;DHT22;37801;53.224;6.552;2022-09-25T00:11:18;9.30;99.90
51725;DHT22;37801;53.224;6.552;2022-09-25T00:13:45;9.30;99.90
51725;DHT22;37801;53.224;6.552;2022-09-25T00:16:14;9.20;99.90
51725;DHT22;37801;53.224;6.552;2022-09-25T00:18:40;9.20;99.90
51725;DHT22;37801;53.224;6.552;2022-09-25T00:21:25;9.10;99.90
51725;DHT22;37801;53.224;6.552;2022-09-25T00:23:56;9.10;99.90
51725;DHT22;37801;53.224;6.552;2022-09-25T00:26:26;9.10;99.90
51725;DHT22;37801;53.224;6.552;2022-09-25T00:28:53;9.10;99.90
51725;DHT22;37801;53.224;6.552;2022-09-25T00:31:21;9.10;99.90
51725;DHT22;37801;53.224;6.552;2022-09-25T00:33:52;9.10;99.90
51725;DHT22;37801;53.224;6.552;2022-09-25T00:36:19;9.10;99.90
51725;DHT22;37801;53.224;6.552;2022-09-25T00:38:45;9.00;99.90
51725;DHT22;37801;53.224;6.552;2022-09-25T00:41:15;9.00;99.90
51725;DHT22;37801;53.224;6.552;2022-09-25T00:44:00;9.00;99.90
51725;DHT22;37801;53.224;6.552;2022-09-25T00:46:41;9.10;99.90
51725;DHT22;37801;53.224;6.552;2022-09-25T00:49:15;9.10;99.90
51725;DHT22;37801;53.224;6.552;2022-09-25T00:52:00;9.10;99.90
51725;DHT22;37801;53.224;6.552;2022-09-25T00:54:51;9.00;99.90
51725;DHT22;37801;53.224;6.552;2022-09-25T00:57:20;9.00;99.90
51725;DHT22;37801;53.224;6.552;2022-09-25T00:59:50;8.90;99.90
51725;DHT22;37801;53.224;6.552;2022-09-25T01:02:22;9.10;99.90
51725;DHT22;37801;53.224;6.552;2022-09-25T01:04:50;8.90;99.90
51725;DHT22;37801;53.224;6.552;2022-09-25T01:07:17;8.90;99.90
51725;DHT22;37801;53.224;6.552;2022-09-25T01:09:44;8.90;99.90
51725;DHT22;37801;53.224;6.552;2022-09-25T01:12:10;8.90;99.90
51725;DHT22;37801;53.224;6.552;2022-09-25T01:14:37;8.90;99.90
51725;DHT22;37801;53.224;6.552;2022-09-25T01:30:10;8.90;99.90
51725;DHT22;37801;53.224;6.552;2022-09-25T01:32:55;8.90;99.90
51725;DHT22;37801;53.224;6.552;2022-09-25T01:43:35;8.80;99.90
51725;DHT22;37801;53.224;6.552;2022-09-25T01:46:07;8.80;99.90
51725;DHT22;37801;53.224;6.552;2022-09-25T01:48:37;8.70;99.90
51725;DHT22;37801;53.224;6.552;2022-09-25T01:51:12;8.70;99.90
51725;DHT22;37801;53.224;6.552;2022-09-25T01:53:54;8.70;99.90
51725;DHT22;37801;53.224;6.552;2022-09-25T01:56:37;8.70;99.90
51725;DHT22;37801;53.224;6.552;2022-09-25T01:59:09;8.70;99.90
51725;DHT22;37801;53.224;6.552;2022-09-25T02:01:40;8.60;99.90
51725;DHT22;37801;53.224;6.552;2022-09-25T02:04:14;8.70;99.90
51725;DHT22;37801;53.224;6.552;2022-09-25T02:06:44;8.70;99.90
51725;DHT22;37801;53.224;6.552;2022-09-25T02:09:19;8.70;99.90
51725;DHT22;37801;53.224;6.552;2022-09-25T02:11:50;8.70;99.90
51725;DHT22;37801;53.224;6.552;2022-09-25T02:14:21;8.70;99.90
51725;DHT22;37801;53.224;6.552;2022-09-25T02:16:50;8.70;99.90
51725;DHT22;37801;53.224;6.552;2022-09-25T02:19:18;8.70;99.90
51725;DHT22;37801;53.224;6.552;2022-09-25T02:22:11;8.60;99.90
51725;DHT22;37801;53.224;6.552;2022-09-25T02:25:06;8.60;99.90
51725;DHT22;37801;53.224;6.552;2022-09-25T02:27:36;8.50;99.90
51725;DHT22;37801;53.224;6.552;2022-09-25T02:30:02;8.50;99.90
51725;DHT22;37801;53.224;6.552;2022-09-25T02:32:30;8.50;99.90
51725;DHT22;37801;53.224;6.552;2022-09-25T02:34:57;8.50;99.90
51725;DHT22;37801;53.224;6.552;2022-09-25T02:37:24;8.50;99.90
51725;DHT22;37801;53.224;6.552;2022-09-25T02:39:53;8.40;99.90
51725;DHT22;37801;53.224;6.552;2022-09-25T02:50:03;8.40;99.90
51725;DHT22;37801;53.224;6.552;2022-09-25T02:58:11;8.30;99.90
51725;DHT22;37801;53.224;6.552;2022-09-25T03:00:39;8.30;99.90
51725;DHT22;37801;53.224;6.552;2022-09-25T03:03:08;8.20;99.90
51725;DHT22;37801;53.224;6.552;2022-09-25T03:05:36;8.30;99.90
51725;DHT22;37801;53.224;6.552;2022-09-25T03:08:02;8.30;99.90
51725;DHT22;37801;53.224;6.552;2022-09-25T03:10:47;8.30;99.90
51725;DHT22;37801;53.224;6.552;2022-09-25T03:13:18;8.30;99.90
51725;DHT22;37801;53.224;6.552;2022-09-25T03:15:47;8.30;99.90
51725;DHT22;37801;53.224;6.552;2022-09-25T03:18:15;8.30;99.90
51725;DHT22;37801;53.224;6.552;2022-09-25T03:20:41;8.30;99.90
51725;DHT22;37801;53.224;6.552;2022-09-25T03:23:07;8.30;99.90
51725;DHT22;37801;53.224;6.552;2022-09-25T03:25:33;8.30;99.90
51725;DHT22;37801;53.224;6.552;2022-09-25T03:27:59;8.30;99.90
51725;DHT22;37801;53.224;6.552;2022-09-25T03:30:24;8.40;99.90
51725;DHT22;37801;53.224;6.552;2022-09-25T03:32:50;8.40;99.90
51725;DHT22;37801;53.224;6.552;2022-09-25T03:35:16;8.40;99.90
51725;DHT22;37801;53.224;6.552;2022-09-25T03:37:41;8.40;99.90
51725;DHT22;37801;53.224;6.552;2022-09-25T03:40:07;8.40;99.90
51725;DHT22;37801;53.224;6.552;2022-09-25T03:42:33;8.40;99.90
51725;DHT22;37801;53.224;6.552;2022-09-25T03:45:00;8.40;99.90
51725;DHT22;37801;53.224;6.552;2022-09-25T03:47:26;8.50;99.90
51725;DHT22;37801;53.224;6.552;2022-09-25T03:49:52;8.50;99.90
51725;DHT22;37801;53.224;6.552;2022-09-25T03:52:18;8.50;99.90
51725;DHT22;37801;53.224;6.552;2022-09-25T03:54:43;8.40;99.90
51725;DHT22;37801;53.224;6.552;2022-09-25T03:57:09;8.40;99.90
51725;DHT22;37801;53.224;6.552;2022-09-25T03:59:36;8.40;99.90
51725;DHT22;37801;53.224;6.552;2022-09-25T04:02:02;8.40;99.90
51725;DHT22;37801;53.224;6.552;2022-09-25T04:04:28;8.40;99.90
51725;DHT22;37801;53.224;6.552;2022-09-25T04:06:54;8.30;99.90
51725;DHT22;37801;53.224;6.552;2022-09-25T04:09:20;8.30;99.90
51725;DHT22;37801;53.224;6.552;2022-09-25T04:11:46;8.30;99.90
51725;DHT22;37801;53.224;6.552;2022-09-25T04:14:11;8.30;99.90
51725;DHT22;37801;53.224;6.552;2022-09-25T04:16:37;8.30;99.90
51725;DHT22;37801;53.224;6.552;2022-09-25T04:19:03;8.30;99.90
51725;DHT22;37801;53.224;6.552;2022-09-25T04:21:29;8.20;99.90
51725;DHT22;37801;53.224;6.552;2022-09-25T04:23:54;8.20;99.90
51725;DHT22;37801;53.224;6.552;2022-09-25T04:26:39;8.20;99.90
51725;DHT22;37801;53.224;6.552;2022-09-25T04:29:04;8.20;99.90
51725;DHT22;37801;53.224;6.552;2022-09-25T04:31:31;8.20;99.90
51725;DHT22;37801;53.224;6.552;2022-09-25T04:33:57;8.20;99.90
51725;DHT22;37801;53.224;6.552;2022-09-25T04:36:22;8.10;99.90
51725;DHT22;37801;53.224;6.552;2022-09-25T04:38:48;8.10;99.90
51725;DHT22;37801;53.224;6.552;2022-09-25T04:41:15;8.10;99.90
51725;DHT22;37801;53.224;6.552;2022-09-25T04:43:42;8.10;99.90
51725;DHT22;37801;53.224;6.552;2022-09-25T04:46:09;8.00;99.90
51725;DHT22;37801;53.224;6.552;2022-09-25T04:48:36;8.00;99.90
51725;DHT22;37801;53.224;6.552;2022-09-25T04:51:03;8.00;99.90
51725;DHT22;37801;53.224;6.552;2022-09-25T04:53:30;8.00;99.90
51725;DHT22;37801;53.224;6.552;2022-09-25T04:56:00;8.00;99.90
51725;DHT22;37801;53.224;6.552;2022-09-25T04:58:26;8.00;99.90
51725;DHT22;37801;53.224;6.552;2022-09-25T05:00:52;8.00;99.90
51725;DHT22;37801;53.224;6.552;2022-09-25T05:03:18;8.00;99.90
51725;DHT22;37801;53.224;6.552;2022-09-25T05:05:44;7.90;99.90
51725;DHT22;37801;53.224;6.552;2022-09-25T05:08:09;7.90;99.90
51725;DHT22;37801;53.224;6.552;2022-09-25T05:10:36;8.00;99.90
51725;DHT22;37801;53.224;6.552;2022-09-25T05:13:04;7.90;99.90
51725;DHT22;37801;53.224;6.552;2022-09-25T05:15:32;7.90;99.90
51725;DHT22;37801;53.224;6.552;2022-09-25T05:18:16;7.90;99.90
51725;DHT22;37801;53.224;6.552;2022-09-25T05:20:42;7.90;99.90
51725;DHT22;37801;53.224;6.552;2022-09-25T05:23:07;7.90;99.90
51725;DHT22;37801;53.224;6.552;2022-09-25T05:25:33;7.90;99.90
51725;DHT22;37801;53.224;6.552;2022-09-25T05:28:00;7.90;99.90
51725;DHT22;37801;53.224;6.552;2022-09-25T05:30:28;7.90;99.90
51725;DHT22;37801;53.224;6.552;2022-09-25T05:32:54;7.90;99.90
51725;DHT22;37801;53.224;6.552;2022-09-25T05:35:22;8.00;99.90
51725;DHT22;37801;53.224;6.552;2022-09-25T05:37:49;8.00;99.90
51725;DHT22;37801;53.224;6.552;2022-09-25T05:40:16;7.90;99.90
51725;DHT22;37801;53.224;6.552;2022-09-25T05:42:43;8.00;99.90
51725;DHT22;37801;53.224;6.552;2022-09-25T05:45:12;8.00;99.90
51725;DHT22;37801;53.224;6.552;2022-09-25T05:47:39;7.90;99.90
51725;DHT22;37801;53.224;6.552;2022-09-25T05:50:07;7.90;99.90
51725;DHT22;37801;53.224;6.552;2022-09-25T05:52:33;8.00;99.90
51725;DHT22;37801;53.224;6.552;2022-09-25T05:54:59;8.00;99.90
51725;DHT22;37801;53.224;6.552;2022-09-25T05:57:25;8.00;99.90
51725;DHT22;37801;53.224;6.552;2022-09-25T05:59:52;8.00;99.90
51725;DHT22;37801;53.224;6.552;2022-09-25T06:02:18;8.00;99.90
51725;DHT22;37801;53.224;6.552;2022-09-25T06:04:43;8.00;99.90
51725;DHT22;37801;53.224;6.552;2022-09-25T06:07:09;8.00;99.90
51725;DHT22;37801;53.224;6.552;2022-09-25T06:09:35;8.00;99.90
51725;DHT22;37801;53.224;6.552;2022-09-25T06:12:02;8.10;99.90
51725;DHT22;37801;53.224;6.552;2022-09-25T06:14:28;8.10;99.90
51725;DHT22;37801;53.224;6.552;2022-09-25T06:16:54;8.10;99.90
51725;DHT22;37801;53.224;6.552;2022-09-25T06:19:20;8.10;99.90
51725;DHT22;37801;53.224;6.552;2022-09-25T06:21:46;8.10;99.90
51725;DHT22;37801;53.224;6.552;2022-09-25T06:24:12;8.10;99.90
51725;DHT22;37801;53.224;6.552;2022-09-25T06:26:38;8.10;99.90
51725;DHT22;37801;53.224;6.552;2022-09-25T06:29:04;8.10;99.90
51725;DHT22;37801;53.224;6.552;2022-09-25T06:31:32;8.20;99.90
51725;DHT22;37801;53.224;6.552;2022-09-25T06:33:59;8.20;99.90
51725;DHT22;37801;53.224;6.552;2022-09-25T06:36:24;8.20;99.90
51725;DHT22;37801;53.224;6.552;2022-09-25T06:38:53;8.20;99.90
51725;DHT22;37801;53.224;6.552;2022-09-25T06:41:20;8.20;99.90
51725;DHT22;37801;53.224;6.552;2022-09-25T06:43:50;8.20;99.90
51725;DHT22;37801;53.224;6.552;2022-09-25T06:46:16;8.30;99.90
51725;DHT22;37801;53.224;6.552;2022-09-25T06:48:43;8.30;99.90
51725;DHT22;37801;53.224;6.552;2022-09-25T06:51:09;8.30;99.90
51725;DHT22;37801;53.224;6.552;2022-09-25T06:53:35;8.30;99.90
51725;DHT22;37801;53.224;6.552;2022-09-25T06:56:00;8.40;99.90
51725;DHT22;37801;53.224;6.552;2022-09-25T06:58:28;8.40;99.90
51725;DHT22;37801;53.224;6.552;2022-09-25T07:00:55;8.50;99.90
51725;DHT22;37801;53.224;6.552;2022-09-25T07:03:22;8.50;99.90
51725;DHT22;37801;53.224;6.552;2022-09-25T07:06:08;8.60;99.90
51725;DHT22;37801;53.224;6.552;2022-09-25T07:08:35;8.60;99.90
51725;DHT22;37801;53.224;6.552;2022-09-25T07:11:02;8.70;99.90
51725;DHT22;37801;53.224;6.552;2022-09-25T07:13:29;8.80;99.90
51725;DHT22;37801;53.224;6.552;2022-09-25T07:15:58;8.80;99.90
51725;DHT22;37801;53.224;6.552;2022-09-25T07:18:24;8.80;99.90
51725;DHT22;37801;53.224;6.552;2022-09-25T07:20:51;8.90;99.90
51725;DHT22;37801;53.224;6.552;2022-09-25T07:23:19;9.00;99.90
51725;DHT22;37801;53.224;6.552;2022-09-25T07:25:46;9.00;99.90
51725;DHT22;37801;53.224;6.552;2022-09-25T07:28:13;9.20;99.90
51725;DHT22;37801;53.224;6.552;2022-09-25T07:30:42;9.40;99.90
51725;DHT22;37801;53.224;6.552;2022-09-25T07:33:08;9.60;99.90
51725;DHT22;37801;53.224;6.552;2022-09-25T07:35:34;9.80;99.90
51725;DHT22;37801;53.224;6.552;2022-09-25T07:38:01;9.90;99.90
51725;DHT22;37801;53.224;6.552;2022-09-25T07:40:27;10.10;99.90
51725;DHT22;37801;53.224;6.552;2022-09-25T07:43:03;10.20;99.90
51725;DHT22;37801;53.224;6.552;2022-09-25T07:45:30;10.50;99.90
51725;DHT22;37801;53.224;6.552;2022-09-25T07:48:00;10.70;99.90
51725;DHT22;37801;53.224;6.552;2022-09-25T07:50:27;10.90;99.90
51725;DHT22;37801;53.224;6.552;2022-09-25T07:52:53;11.20;99.90
51725;DHT22;37801;53.224;6.552;2022-09-25T07:55:20;11.40;99.90
51725;DHT22;37801;53.224;6.552;2022-09-25T07:57:45;11.60;99.90
51725;DHT22;37801;53.224;6.552;2022-09-25T08:00:12;11.70;99.90
51725;DHT22;37801;53.224;6.552;2022-09-25T08:02:38;11.80;99.90
51725;DHT22;37801;53.224;6.552;2022-09-25T08:05:04;11.90;99.90
51725;DHT22;37801;53.224;6.552;2022-09-25T08:07:30;11.90;99.90
51725;DHT22;37801;53.224;6.552;2022-09-25T08:09:56;11.90;99.90
51725;DHT22;37801;53.224;6.552;2022-09-25T08:12:22;11.80;99.90
51725;DHT22;37801;53.224;6.552;2022-09-25T08:14:51;11.80;99.90
51725;DHT22;37801;53.224;6.552;2022-09-25T08:17:17;11.80;99.90
51725;DHT22;37801;53.224;6.552;2022-09-25T08:19:44;11.80;99.90
51725;DHT22;37801;53.224;6.552;2022-09-25T08:22:10;11.90;99.90
51725;DHT22;37801;53.224;6.552;2022-09-25T08:24:36;11.90;99.90
51725;DHT22;37801;53.224;6.552;2022-09-25T08:27:03;12.10;99.90
51725;DHT22;37801;53.224;6.552;2022-09-25T08:29:28;12.20;99.90
51725;DHT22;37801;53.224;6.552;2022-09-25T08:31:55;12.30;99.90
51725;DHT22;37801;53.224;6.552;2022-09-25T08:34:21;12.40;99.90
51725;DHT22;37801;53.224;6.552;2022-09-25T08:36:50;12.50;99.90
51725;DHT22;37801;53.224;6.552;2022-09-25T08:39:17;12.40;99.90
51725;DHT22;37801;53.224;6.552;2022-09-25T08:41:47;12.20;99.90
51725;DHT22;37801;53.224;6.552;2022-09-25T08:44:27;12.10;99.90
51725;DHT22;37801;53.224;6.552;2022-09-25T08:47:14;12.00;99.90
51725;DHT22;37801;53.224;6.552;2022-09-25T08:50:20;11.80;99.90
51725;DHT22;37801;53.224;6.552;2022-09-25T08:53:02;11.60;99.90
51725;DHT22;37801;53.224;6.552;2022-09-25T08:55:39;11.50;99.90
51725;DHT22;37801;53.224;6.552;2022-09-25T08:58:32;11.50;99.90
51725;DHT22;37801;53.224;6.552;2022-09-25T09:01:06;11.60;99.90
51725;DHT22;37801;53.224;6.552;2022-09-25T09:03:42;11.50;99.90
51725;DHT22;37801;53.224;6.552;2022-09-25T09:06:12;11.60;99.90
51725;DHT22;37801;53.224;6.552;2022-09-25T09:08:41;11.10;99.90
51725;DHT22;37801;53.224;6.552;2022-09-25T09:11:19;11.50;99.90
51725;DHT22;37801;53.224;6.552;2022-09-25T09:13:58;11.90;99.90
51725;DHT22;37801;53.224;6.552;2022-09-25T09:16:51;11.90;99.90
51725;DHT22;37801;53.224;6.552;2022-09-25T09:19:20;11.60;99.90
51725;DHT22;37801;53.224;6.552;2022-09-25T09:21:51;11.80;99.90
51725;DHT22;37801;53.224;6.552;2022-09-25T09:24:30;12.10;99.90
51725;DHT22;37801;53.224;6.552;2022-09-25T09:27:23;12.00;99.90
51725;DHT22;37801;53.224;6.552;2022-09-25T09:30:18;11.40;99.90
51725;DHT22;37801;53.224;6.552;2022-09-25T09:35:31;11.80;99.90
51725;DHT22;37801;53.224;6.552;2022-09-25T09:43:46;12.30;99.90
51725;DHT22;37801;53.224;6.552;2022-09-25T09:51:54;12.70;99.90
51725;DHT22;37801;53.224;6.552;2022-09-25T09:54:28;12.70;99.90
51725;DHT22;37801;53.224;6.552;2022-09-25T09:57:01;12.00;99.90
51725;DHT22;37801;53.224;6.552;2022-09-25T09:59:42;12.60;99.90
51725;DHT22;37801;53.224;6.552;2022-09-25T10:04:57;12.60;99.90
51725;DHT22;37801;53.224;6.552;2022-09-25T10:07:27;12.40;99.90
51725;DHT22;37801;53.224;6.552;2022-09-25T10:09:54;13.00;99.90
51725;DHT22;37801;53.224;6.552;2022-09-25T10:12:27;13.20;99.90
51725;DHT22;37801;53.224;6.552;2022-09-25T10:14:54;12.70;99.90
51725;DHT22;37801;53.224;6.552;2022-09-25T10:17:22;12.40;99.90
51725;DHT22;37801;53.224;6.552;2022-09-25T10:19:58;12.90;99.90
51725;DHT22;37801;53.224;6.552;2022-09-25T10:22:44;12.70;99.90
51725;DHT22;37801;53.224;6.552;2022-09-25T10:25:11;12.80;99.90
51725;DHT22;37801;53.224;6.552;2022-09-25T10:27:42;12.70;99.90
51725;DHT22;37801;53.224;6.552;2022-09-25T10:32:52;12.70;99.90
51725;DHT22;37801;53.224;6.552;2022-09-25T10:35:45;12.60;99.90
51725;DHT22;37801;53.224;6.552;2022-09-25T10:41:12;12.80;99.90
51725;DHT22;37801;53.224;6.552;2022-09-25T10:43:58;12.80;99.90
51725;DHT22;37801;53.224;6.552;2022-09-25T10:46:30;12.90;99.90
51725;DHT22;37801;53.224;6.552;2022-09-25T10:49:21;12.90;99.90
51725;DHT22;37801;53.224;6.552;2022-09-25T10:52:08;12.80;99.90
51725;DHT22;37801;53.224;6.552;2022-09-25T10:54:35;12.80;99.90
51725;DHT22;37801;53.224;6.552;2022-09-25T10:57:32;12.80;99.90
51725;DHT22;37801;53.224;6.552;2022-09-25T11:00:21;12.60;99.90
51725;DHT22;37801;53.224;6.552;2022-09-25T11:02:51;12.50;99.90
51725;DHT22;37801;53.224;6.552;2022-09-25T11:05:20;12.60;99.90
51725;DHT22;37801;53.224;6.552;2022-09-25T11:07:59;12.30;99.90
51725;DHT22;37801;53.224;6.552;2022-09-25T11:10:28;12.00;99.90
51725;DHT22;37801;53.224;6.552;2022-09-25T11:12:55;12.10;99.90
51725;DHT22;37801;53.224;6.552;2022-09-25T11:15:24;11.90;99.90
51725;DHT22;37801;53.224;6.552;2022-09-25T11:17:53;11.80;99.90
51725;DHT22;37801;53.224;6.552;2022-09-25T11:20:26;11.70;99.90
51725;DHT22;37801;53.224;6.552;2022-09-25T11:29:37;11.90;99.90
51725;DHT22;37801;53.224;6.552;2022-09-25T11:31:45;12.00;99.90
51725;DHT22;37801;53.224;6.552;2022-09-25T11:40:31;12.40;99.90
51725;DHT22;37801;53.224;6.552;2022-09-25T11:43:32;12.50;99.90
51725;DHT22;37801;53.224;6.552;2022-09-25T11:49:11;12.80;99.90
51725;DHT22;37801;53.224;6.552;2022-09-25T11:57:29;12.90;99.90
51725;DHT22;37801;53.224;6.552;2022-09-25T12:27:40;13.10;99.90
51725;DHT22;37801;53.224;6.552;2022-09-25T12:30:18;13.10;99.90
51725;DHT22;37801;53.224;6.552;2022-09-25T12:33:12;13.10;99.90
51725;DHT22;37801;53.224;6.552;2022-09-25T12:38:41;13.00;99.90
51725;DHT22;37801;53.224;6.552;2022-09-25T12:46:26;12.90;99.90
51725;DHT22;37801;53.224;6.552;2022-09-25T12:51:45;12.80;99.90
51725;DHT22;37801;53.224;6.552;2022-09-25T12:57:10;12.80;99.90
51725;DHT22;37801;53.224;6.552;2022-09-25T12:59:42;12.90;99.90
51725;DHT22;37801;53.224;6.552;2022-09-25T13:10:32;13.00;99.90
51725;DHT22;37801;53.224;6.552;2022-09-25T13:13:01;12.90;99.90
51725;DHT22;37801;53.224;6.552;2022-09-25T13:15:34;12.90;99.90
51725;DHT22;37801;53.224;6.552;2022-09-25T13:18:03;12.80;99.90
51725;DHT22;37801;53.224;6.552;2022-09-25T13:23:09;12.70;99.90
51725;DHT22;37801;53.224;6.552;2022-09-25T13:25:47;12.80;99.90
51725;DHT22;37801;53.224;6.552;2022-09-25T13:28:21;12.70;99.90
51725;DHT22;37801;53.224;6.552;2022-09-25T13:31:21;12.80;99.90
51725;DHT22;37801;53.224;6.552;2022-09-25T13:33:51;12.90;99.90
51725;DHT22;37801;53.224;6.552;2022-09-25T13:39:00;12.80;99.90
51725;DHT22;37801;53.224;6.552;2022-09-25T13:44:44;13.00;99.90
51725;DHT22;37801;53.224;6.552;2022-09-25T13:49:51;13.10;99.90
51725;DHT22;37801;53.224;6.552;2022-09-25T13:58:57;13.30;99.90
51725;DHT22;37801;53.224;6.552;2022-09-25T14:01:34;13.30;99.90
51725;DHT22;37801;53.224;6.552;2022-09-25T14:04:15;13.40;99.90
51725;DHT22;37801;53.224;6.552;2022-09-25T14:06:44;13.50;99.90
51725;DHT22;37801;53.224;6.552;2022-09-25T14:09:22;13.60;99.90
51725;DHT22;37801;53.224;6.552;2022-09-25T14:12:31;13.50;99.90
51725;DHT22;37801;53.224;6.552;2022-09-25T14:17:23;13.50;99.90
51725;DHT22;37801;53.224;6.552;2022-09-25T14:19:53;13.50;99.90
51725;DHT22;37801;53.224;6.552;2022-09-25T14:22:38;13.50;99.90
51725;DHT22;37801;53.224;6.552;2022-09-25T14:25:34;13.50;99.90
51725;DHT22;37801;53.224;6.552;2022-09-25T14:28:23;13.50;99.90
51725;DHT22;37801;53.224;6.552;2022-09-25T14:38:59;13.40;99.90
51725;DHT22;37801;53.224;6.552;2022-09-25T14:46:58;13.30;99.90
51725;DHT22;37801;53.224;6.552;2022-09-25T14:49:27;13.30;99.90
51725;DHT22;37801;53.224;6.552;2022-09-25T14:51:57;13.20;99.90
51725;DHT22;37801;53.224;6.552;2022-09-25T14:54:26;13.30;99.90
51725;DHT22;37801;53.224;6.552;2022-09-25T14:56:55;13.30;99.90
51725;DHT22;37801;53.224;6.552;2022-09-25T14:59:29;13.30;99.90
51725;DHT22;37801;53.224;6.552;2022-09-25T15:01:57;13.20;99.90
51725;DHT22;37801;53.224;6.552;2022-09-25T15:04:33;13.30;99.90
51725;DHT22;37801;53.224;6.552;2022-09-25T15:09:34;13.40;99.90
51725;DHT22;37801;53.224;6.552;2022-09-25T15:12:17;13.40;99.90
51725;DHT22;37801;53.224;6.552;2022-09-25T15:15:08;13.50;99.90
51725;DHT22;37801;53.224;6.552;2022-09-25T15:17:54;13.50;99.90
51725;DHT22;37801;53.224;6.552;2022-09-25T15:20:26;13.60;99.90
51725;DHT22;37801;53.224;6.552;2022-09-25T15:23:01;13.70;99.90
51725;DHT22;37801;53.224;6.552;2022-09-25T15:25:31;13.70;99.90
51725;DHT22;37801;53.224;6.552;2022-09-25T15:27:59;13.70;99.90
51725;DHT22;37801;53.224;6.552;2022-09-25T15:30:26;13.70;99.90
51725;DHT22;37801;53.224;6.552;2022-09-25T15:32:53;13.70;99.90
51725;DHT22;37801;53.224;6.552;2022-09-25T15:35:24;13.70;99.90
51725;DHT22;37801;53.224;6.552;2022-09-25T15:38:11;13.70;99.90
51725;DHT22;37801;53.224;6.552;2022-09-25T15:40:38;13.60;99.90
51725;DHT22;37801;53.224;6.552;2022-09-25T15:43:11;13.60;99.90
51725;DHT22;37801;53.224;6.552;2022-09-25T15:45:44;13.40;99.90
51725;DHT22;37801;53.224;6.552;2022-09-25T15:48:29;13.40;99.90
51725;DHT22;37801;53.224;6.552;2022-09-25T15:51:00;13.30;99.90
51725;DHT22;37801;53.224;6.552;2022-09-25T15:53:32;13.20;99.90
51725;DHT22;37801;53.224;6.552;2022-09-25T15:56:25;13.20;99.90
51725;DHT22;37801;53.224;6.552;2022-09-25T16:01:23;13.10;99.90
51725;DHT22;37801;53.224;6.552;2022-09-25T16:04:14;13.10;99.90
51725;DHT22;37801;53.224;6.552;2022-09-25T16:06:59;13.10;99.90
51725;DHT22;37801;53.224;6.552;2022-09-25T16:09:31;13.10;99.90
51725;DHT22;37801;53.224;6.552;2022-09-25T16:12:19;13.30;99.90
51725;DHT22;37801;53.224;6.552;2022-09-25T16:14:46;13.20;99.90
51725;DHT22;37801;53.224;6.552;2022-09-25T16:17:39;13.20;99.90
51725;DHT22;37801;53.224;6.552;2022-09-25T16:22:50;13.20;99.90
51725;DHT22;37801;53.224;6.552;2022-09-25T16:25:24;13.20;99.90
51725;DHT22;37801;53.224;6.552;2022-09-25T16:27:52;13.20;99.90
51725;DHT22;37801;53.224;6.552;2022-09-25T16:30:21;13.10;99.90
51725;DHT22;37801;53.224;6.552;2022-09-25T16:32:53;13.20;99.90
51725;DHT22;37801;53.224;6.552;2022-09-25T16:35:35;13.20;99.90
51725;DHT22;37801;53.224;6.552;2022-09-25T16:38:03;13.20;99.90
51725;DHT22;37801;53.224;6.552;2022-09-25T16:40:30;13.10;99.90
51725;DHT22;37801;53.224;6.552;2022-09-25T16:43:08;13.10;99.90
51725;DHT22;37801;53.224;6.552;2022-09-25T16:45:59;13.20;99.90
51725;DHT22;37801;53.224;6.552;2022-09-25T16:48:36;13.10;99.90
51725;DHT22;37801;53.224;6.552;2022-09-25T16:51:20;13.10;99.90
51725;DHT22;37801;53.224;6.552;2022-09-25T16:53:46;13.10;99.90
51725;DHT22;37801;53.224;6.552;2022-09-25T16:56:20;13.10;99.90
51725;DHT22;37801;53.224;6.552;2022-09-25T16:58:46;13.10;99.90
51725;DHT22;37801;53.224;6.552;2022-09-25T17:01:12;13.10;99.90
51725;DHT22;37801;53.224;6.552;2022-09-25T17:03:37;13.10;99.90
51725;DHT22;37801;53.224;6.552;2022-09-25T17:06:24;13.00;99.90
51725;DHT22;37801;53.224;6.552;2022-09-25T17:08:57;13.00;99.90
51725;DHT22;37801;53.224;6.552;2022-09-25T17:11:23;13.00;99.90
51725;DHT22;37801;53.224;6.552;2022-09-25T17:13:49;13.00;99.90
51725;DHT22;37801;53.224;6.552;2022-09-25T17:16:16;13.00;99.90
51725;DHT22;37801;53.224;6.552;2022-09-25T17:18:42;13.00;99.90
51725;DHT22;37801;53.224;6.552;2022-09-25T17:21:13;13.00;99.90
51725;DHT22;37801;53.224;6.552;2022-09-25T17:23:39;12.90;99.90
51725;DHT22;37801;53.224;6.552;2022-09-25T17:26:15;12.90;99.90
51725;DHT22;37801;53.224;6.552;2022-09-25T17:28:42;12.80;99.90
51725;DHT22;37801;53.224;6.552;2022-09-25T17:31:13;12.80;99.90
51725;DHT22;37801;53.224;6.552;2022-09-25T17:33:39;12.80;99.90
51725;DHT22;37801;53.224;6.552;2022-09-25T17:36:09;12.80;99.90
51725;DHT22;37801;53.224;6.552;2022-09-25T17:38:35;12.70;99.90
51725;DHT22;37801;53.224;6.552;2022-09-25T17:41:03;12.70;99.90
51725;DHT22;37801;53.224;6.552;2022-09-25T17:43:29;12.70;99.90
51725;DHT22;37801;53.224;6.552;2022-09-25T17:45:56;12.60;99.90
51725;DHT22;37801;53.224;6.552;2022-09-25T17:48:24;12.60;99.90
51725;DHT22;37801;53.224;6.552;2022-09-25T17:51:03;12.60;99.90
51725;DHT22;37801;53.224;6.552;2022-09-25T17:53:34;12.50;99.90
51725;DHT22;37801;53.224;6.552;2022-09-25T17:56:01;12.50;99.90
51725;DHT22;37801;53.224;6.552;2022-09-25T17:58:28;12.40;99.90
51725;DHT22;37801;53.224;6.552;2022-09-25T18:00:56;12.30;99.90
51725;DHT22;37801;53.224;6.552;2022-09-25T18:03:24;12.20;99.90
51725;DHT22;37801;53.224;6.552;2022-09-25T18:05:50;12.20;99.90
51725;DHT22;37801;53.224;6.552;2022-09-25T18:08:16;12.20;99.90
51725;DHT22;37801;53.224;6.552;2022-09-25T18:10:43;12.10;99.90
51725;DHT22;37801;53.224;6.552;2022-09-25T18:13:12;12.00;99.90
51725;DHT22;37801;53.224;6.552;2022-09-25T18:15:50;11.90;99.90
51725;DHT22;37801;53.224;6.552;2022-09-25T18:18:17;11.90;99.90
51725;DHT22;37801;53.224;6.552;2022-09-25T18:20:43;11.80;99.90
51725;DHT22;37801;53.224;6.552;2022-09-25T18:23:27;11.80;99.90
51725;DHT22;37801;53.224;6.552;2022-09-25T18:25:53;11.70;99.90
51725;DHT22;37801;53.224;6.552;2022-09-25T18:28:20;11.70;99.90
51725;DHT22;37801;53.224;6.552;2022-09-25T18:30:46;11.70;99.90
51725;DHT22;37801;53.224;6.552;2022-09-25T18:33:11;11.60;99.90
51725;DHT22;37801;53.224;6.552;2022-09-25T18:35:37;11.60;99.90
51725;DHT22;37801;53.224;6.552;2022-09-25T18:38:04;11.60;99.90
51725;DHT22;37801;53.224;6.552;2022-09-25T18:40:30;11.50;99.90
51725;DHT22;37801;53.224;6.552;2022-09-25T18:42:56;11.50;99.90
51725;DHT22;37801;53.224;6.552;2022-09-25T18:45:25;11.50;99.90
51725;DHT22;37801;53.224;6.552;2022-09-25T18:47:51;11.50;99.90
51725;DHT22;37801;53.224;6.552;2022-09-25T18:50:18;11.50;99.90
51725;DHT22;37801;53.224;6.552;2022-09-25T18:52:43;11.50;99.90